sensor_id;sensor_type;location;lat;lon;timestamp;P1;durP1;ratioP1;P2;durP2;ratioP2
59099;SDS011;44884;52.730;6.964;2022-08-21T00:02:01;2.40;;;1.88;;
59099;SDS011;44884;52.730;6.964;2022-08-21T00:04:27;3.42;;;1.90;;
59099;SDS011;44884;52.730;6.964;2022-08-21T00:06:53;2.30;;;2.05;;
59099;SDS011;44884;52.730;6.964;2022-08-21T00:09:19;2.42;;;2.13;;
59099;SDS011;44884;52.730;6.964;2022-08-21T00:11:45;1.92;;;1.73;;
59099;SDS011;44884;52.730;6.964;2022-08-21T00:14:12;2.58;;;2.20;;
59099;SDS011;44884;52.730;6.964;2022-08-21T00:16:38;3.20;;;2.00;;
59099;SDS011;44884;52.730;6.964;2022-08-21T00:19:04;2.30;;;2.10;;
59099;SDS011;44884;52.730;6.964;2022-08-21T00:21:31;5.10;;;2.60;;
59099;SDS011;44884;52.730;6.964;2022-08-21T00:23:57;2.70;;;2.00;;
59099;SDS011;44884;52.730;6.964;2022-08-21T00:26:23;2.13;;;1.90;;
59099;SDS011;44884;52.730;6.964;2022-08-21T00:28:49;2.35;;;2.20;;
59099;SDS011;44884;52.730;6.964;2022-08-21T00:31:16;2.45;;;2.22;;
59099;SDS011;44884;52.730;6.964;2022-08-21T00:33:43;2.17;;;2.08;;
59099;SDS011;44884;52.730;6.964;2022-08-21T00:36:09;2.28;;;2.08;;
59099;SDS011;44884;52.730;6.964;2022-08-21T00:38:35;7.28;;;2.40;;
59099;SDS011;44884;52.730;6.964;2022-08-21T00:41:03;2.10;;;1.90;;
59099;SDS011;44884;52.730;6.964;2022-08-21T00:43:32;3.17;;;2.20;;
59099;SDS011;44884;52.730;6.964;2022-08-21T00:45:58;3.45;;;2.40;;
59099;SDS011;44884;52.730;6.964;2022-08-21T00:48:25;2.85;;;2.20;;
59099;SDS011;44884;52.730;6.964;2022-08-21T00:51:03;3.97;;;2.40;;
59099;SDS011;44884;52.730;6.964;2022-08-21T00:53:29;2.42;;;2.22;;
59099;SDS011;44884;52.730;6.964;2022-08-21T00:55:57;2.33;;;1.90;;
59099;SDS011;44884;52.730;6.964;2022-08-21T00:58:23;2.40;;;2.20;;
59099;SDS011;44884;52.730;6.964;2022-08-21T01:00:50;2.85;;;2.50;;
59099;SDS011;44884;52.730;6.964;2022-08-21T01:03:18;2.20;;;2.00;;
59099;SDS011;44884;52.730;6.964;2022-08-21T01:05:44;2.70;;;2.50;;
59099;SDS011;44884;52.730;6.964;2022-08-21T01:08:11;2.50;;;2.30;;
59099;SDS011;44884;52.730;6.964;2022-08-21T01:10:37;3.28;;;2.03;;
59099;SDS011;44884;52.730;6.964;2022-08-21T01:13:04;2.30;;;2.10;;
59099;SDS011;44884;52.730;6.964;2022-08-21T01:15:32;2.25;;;1.95;;
59099;SDS011;44884;52.730;6.964;2022-08-21T01:17:59;1.98;;;1.85;;
59099;SDS011;44884;52.730;6.964;2022-08-21T01:20:25;2.30;;;2.10;;
59099;SDS011;44884;52.730;6.964;2022-08-21T01:22:51;3.95;;;2.72;;
59099;SDS011;44884;52.730;6.964;2022-08-21T01:25:18;3.25;;;2.10;;
59099;SDS011;44884;52.730;6.964;2022-08-21T01:27:47;2.38;;;2.17;;
59099;SDS011;44884;52.730;6.964;2022-08-21T01:30:18;3.47;;;2.30;;
59099;SDS011;44884;52.730;6.964;2022-08-21T01:32:45;2.40;;;2.20;;
59099;SDS011;44884;52.730;6.964;2022-08-21T01:35:12;2.30;;;2.10;;
59099;SDS011;44884;52.730;6.964;2022-08-21T01:37:39;3.15;;;2.50;;
59099;SDS011;44884;52.730;6.964;2022-08-21T01:40:05;4.53;;;2.05;;
59099;SDS011;44884;52.730;6.964;2022-08-21T01:42:32;3.60;;;2.33;;
59099;SDS011;44884;52.730;6.964;2022-08-21T01:44:58;2.65;;;2.45;;
59099;SDS011;44884;52.730;6.964;2022-08-21T01:47:24;2.28;;;2.08;;
59099;SDS011;44884;52.730;6.964;2022-08-21T01:49:50;2.35;;;2.15;;
59099;SDS011;44884;52.730;6.964;2022-08-21T01:52:16;2.90;;;2.10;;
59099;SDS011;44884;52.730;6.964;2022-08-21T01:54:43;3.13;;;2.45;;
59099;SDS011;44884;52.730;6.964;2022-08-21T01:57:09;4.90;;;2.00;;
59099;SDS011;44884;52.730;6.964;2022-08-21T01:59:35;2.38;;;2.17;;
59099;SDS011;44884;52.730;6.964;2022-08-21T02:02:02;2.90;;;2.58;;
59099;SDS011;44884;52.730;6.964;2022-08-21T02:04:28;2.70;;;2.38;;
59099;SDS011;44884;52.730;6.964;2022-08-21T02:06:55;2.90;;;2.60;;
59099;SDS011;44884;52.730;6.964;2022-08-21T02:09:21;2.88;;;2.55;;
59099;SDS011;44884;52.730;6.964;2022-08-21T02:11:47;3.05;;;2.45;;
59099;SDS011;44884;52.730;6.964;2022-08-21T02:14:14;3.55;;;2.35;;
59099;SDS011;44884;52.730;6.964;2022-08-21T02:16:41;2.50;;;2.30;;
59099;SDS011;44884;52.730;6.964;2022-08-21T02:19:08;4.60;;;3.05;;
59099;SDS011;44884;52.730;6.964;2022-08-21T02:21:34;3.17;;;2.92;;
59099;SDS011;44884;52.730;6.964;2022-08-21T02:24:00;3.60;;;2.90;;
59099;SDS011;44884;52.730;6.964;2022-08-21T02:26:26;4.07;;;2.72;;
59099;SDS011;44884;52.730;6.964;2022-08-21T02:28:53;2.75;;;2.55;;
59099;SDS011;44884;52.730;6.964;2022-08-21T02:31:19;2.58;;;2.38;;
59099;SDS011;44884;52.730;6.964;2022-08-21T02:33:45;2.42;;;2.13;;
59099;SDS011;44884;52.730;6.964;2022-08-21T02:36:12;3.20;;;2.90;;
59099;SDS011;44884;52.730;6.964;2022-08-21T02:38:39;3.80;;;3.00;;
59099;SDS011;44884;52.730;6.964;2022-08-21T02:41:06;2.60;;;2.40;;
59099;SDS011;44884;52.730;6.964;2022-08-21T02:43:32;3.97;;;2.65;;
59099;SDS011;44884;52.730;6.964;2022-08-21T02:45:58;3.83;;;3.00;;
59099;SDS011;44884;52.730;6.964;2022-08-21T02:48:26;2.80;;;2.60;;
59099;SDS011;44884;52.730;6.964;2022-08-21T02:50:57;2.65;;;2.45;;
59099;SDS011;44884;52.730;6.964;2022-08-21T02:53:23;3.55;;;2.72;;
59099;SDS011;44884;52.730;6.964;2022-08-21T02:55:50;3.70;;;2.50;;
59099;SDS011;44884;52.730;6.964;2022-08-21T02:58:17;3.03;;;2.60;;
59099;SDS011;44884;52.730;6.964;2022-08-21T03:00:44;3.45;;;3.10;;
59099;SDS011;44884;52.730;6.964;2022-08-21T03:03:10;2.80;;;2.13;;
59099;SDS011;44884;52.730;6.964;2022-08-21T03:05:38;3.08;;;2.88;;
59099;SDS011;44884;52.730;6.964;2022-08-21T03:08:05;3.47;;;2.80;;
59099;SDS011;44884;52.730;6.964;2022-08-21T03:10:34;2.55;;;2.35;;
59099;SDS011;44884;52.730;6.964;2022-08-21T03:13:01;3.47;;;2.53;;
59099;SDS011;44884;52.730;6.964;2022-08-21T03:15:28;2.55;;;2.35;;
59099;SDS011;44884;52.730;6.964;2022-08-21T03:17:55;3.13;;;2.90;;
59099;SDS011;44884;52.730;6.964;2022-08-21T03:20:23;2.78;;;2.58;;
59099;SDS011;44884;52.730;6.964;2022-08-21T03:22:49;2.90;;;2.63;;
59099;SDS011;44884;52.730;6.964;2022-08-21T03:25:16;2.72;;;2.42;;
59099;SDS011;44884;52.730;6.964;2022-08-21T03:27:42;4.22;;;2.92;;
59099;SDS011;44884;52.730;6.964;2022-08-21T03:30:09;3.95;;;2.85;;
59099;SDS011;44884;52.730;6.964;2022-08-21T03:32:35;3.38;;;2.70;;
59099;SDS011;44884;52.730;6.964;2022-08-21T03:35:02;3.55;;;3.13;;
59099;SDS011;44884;52.730;6.964;2022-08-21T03:37:28;3.13;;;2.83;;
59099;SDS011;44884;52.730;6.964;2022-08-21T03:39:54;2.95;;;2.67;;
59099;SDS011;44884;52.730;6.964;2022-08-21T03:42:20;3.20;;;2.90;;
59099;SDS011;44884;52.730;6.964;2022-08-21T03:44:46;4.13;;;2.92;;
59099;SDS011;44884;52.730;6.964;2022-08-21T03:47:12;3.10;;;2.80;;
59099;SDS011;44884;52.730;6.964;2022-08-21T03:49:38;5.68;;;3.33;;
59099;SDS011;44884;52.730;6.964;2022-08-21T03:52:05;3.47;;;2.80;;
59099;SDS011;44884;52.730;6.964;2022-08-21T03:54:31;2.75;;;2.45;;
59099;SDS011;44884;52.730;6.964;2022-08-21T03:56:57;3.00;;;2.60;;
59099;SDS011;44884;52.730;6.964;2022-08-21T03:59:23;3.53;;;3.22;;
59099;SDS011;44884;52.730;6.964;2022-08-21T04:01:52;4.18;;;2.78;;
59099;SDS011;44884;52.730;6.964;2022-08-21T04:04:19;3.13;;;2.92;;
59099;SDS011;44884;52.730;6.964;2022-08-21T04:06:44;3.35;;;2.85;;
59099;SDS011;44884;52.730;6.964;2022-08-21T04:09:11;3.03;;;2.70;;
59099;SDS011;44884;52.730;6.964;2022-08-21T04:11:37;2.75;;;2.50;;
59099;SDS011;44884;52.730;6.964;2022-08-21T04:14:03;2.63;;;2.42;;
59099;SDS011;44884;52.730;6.964;2022-08-21T04:16:29;4.00;;;2.47;;
59099;SDS011;44884;52.730;6.964;2022-08-21T04:18:55;3.63;;;2.80;;
59099;SDS011;44884;52.730;6.964;2022-08-21T04:21:22;3.33;;;3.03;;
59099;SDS011;44884;52.730;6.964;2022-08-21T04:23:48;4.05;;;3.47;;
59099;SDS011;44884;52.730;6.964;2022-08-21T04:26:14;4.72;;;2.85;;
59099;SDS011;44884;52.730;6.964;2022-08-21T04:28:40;3.17;;;2.88;;
59099;SDS011;44884;52.730;6.964;2022-08-21T04:31:06;3.03;;;2.55;;
59099;SDS011;44884;52.730;6.964;2022-08-21T04:33:33;4.28;;;2.92;;
59099;SDS011;44884;52.730;6.964;2022-08-21T04:35:59;3.47;;;3.10;;
59099;SDS011;44884;52.730;6.964;2022-08-21T04:38:25;2.83;;;2.55;;
59099;SDS011;44884;52.730;6.964;2022-08-21T04:40:51;2.40;;;2.20;;
59099;SDS011;44884;52.730;6.964;2022-08-21T04:43:17;2.92;;;2.63;;
59099;SDS011;44884;52.730;6.964;2022-08-21T04:45:46;5.53;;;3.17;;
59099;SDS011;44884;52.730;6.964;2022-08-21T04:48:13;3.72;;;2.85;;
59099;SDS011;44884;52.730;6.964;2022-08-21T04:50:43;3.20;;;2.85;;
59099;SDS011;44884;52.730;6.964;2022-08-21T04:55:38;4.72;;;2.70;;
59099;SDS011;44884;52.730;6.964;2022-08-21T04:58:05;3.25;;;2.95;;
59099;SDS011;44884;52.730;6.964;2022-08-21T05:00:32;2.97;;;2.58;;
59099;SDS011;44884;52.730;6.964;2022-08-21T05:02:58;3.45;;;3.15;;
59099;SDS011;44884;52.730;6.964;2022-08-21T05:05:27;2.97;;;2.67;;
59099;SDS011;44884;52.730;6.964;2022-08-21T05:07:53;2.70;;;2.50;;
59099;SDS011;44884;52.730;6.964;2022-08-21T05:10:21;3.63;;;3.30;;
59099;SDS011;44884;52.730;6.964;2022-08-21T05:12:47;3.72;;;3.22;;
59099;SDS011;44884;52.730;6.964;2022-08-21T05:15:13;2.80;;;2.60;;
59099;SDS011;44884;52.730;6.964;2022-08-21T05:17:40;3.42;;;3.00;;
59099;SDS011;44884;52.730;6.964;2022-08-21T05:20:07;2.78;;;2.58;;
59099;SDS011;44884;52.730;6.964;2022-08-21T05:22:33;3.30;;;3.00;;
59099;SDS011;44884;52.730;6.964;2022-08-21T05:24:59;5.22;;;3.03;;
59099;SDS011;44884;52.730;6.964;2022-08-21T05:27:25;2.67;;;2.47;;
59099;SDS011;44884;52.730;6.964;2022-08-21T05:29:54;4.18;;;3.78;;
59099;SDS011;44884;52.730;6.964;2022-08-21T05:32:20;3.00;;;2.70;;
59099;SDS011;44884;52.730;6.964;2022-08-21T05:34:46;4.88;;;3.35;;
59099;SDS011;44884;52.730;6.964;2022-08-21T05:37:12;3.10;;;2.80;;
59099;SDS011;44884;52.730;6.964;2022-08-21T05:39:38;3.33;;;2.97;;
59099;SDS011;44884;52.730;6.964;2022-08-21T05:42:05;3.17;;;2.90;;
59099;SDS011;44884;52.730;6.964;2022-08-21T05:44:31;5.95;;;3.00;;
59099;SDS011;44884;52.730;6.964;2022-08-21T05:47:04;2.90;;;2.47;;
59099;SDS011;44884;52.730;6.964;2022-08-21T05:49:30;4.47;;;2.72;;
59099;SDS011;44884;52.730;6.964;2022-08-21T05:51:56;2.58;;;2.38;;
59099;SDS011;44884;52.730;6.964;2022-08-21T05:54:22;2.80;;;2.60;;
59099;SDS011;44884;52.730;6.964;2022-08-21T05:56:48;3.60;;;3.08;;
59099;SDS011;44884;52.730;6.964;2022-08-21T05:59:14;3.35;;;3.05;;
59099;SDS011;44884;52.730;6.964;2022-08-21T06:01:40;3.25;;;2.90;;
59099;SDS011;44884;52.730;6.964;2022-08-21T06:04:06;2.70;;;2.50;;
59099;SDS011;44884;52.730;6.964;2022-08-21T06:06:33;2.53;;;2.33;;
59099;SDS011;44884;52.730;6.964;2022-08-21T06:09:00;3.75;;;3.33;;
59099;SDS011;44884;52.730;6.964;2022-08-21T06:11:26;2.85;;;2.65;;
59099;SDS011;44884;52.730;6.964;2022-08-21T06:13:52;2.65;;;2.45;;
59099;SDS011;44884;52.730;6.964;2022-08-21T06:16:18;4.97;;;3.17;;
59099;SDS011;44884;52.730;6.964;2022-08-21T06:18:44;4.03;;;2.95;;
59099;SDS011;44884;52.730;6.964;2022-08-21T06:21:10;3.38;;;2.72;;
59099;SDS011;44884;52.730;6.964;2022-08-21T06:23:37;2.50;;;2.30;;
59099;SDS011;44884;52.730;6.964;2022-08-21T06:26:03;2.63;;;2.42;;
59099;SDS011;44884;52.730;6.964;2022-08-21T06:28:29;2.83;;;2.58;;
59099;SDS011;44884;52.730;6.964;2022-08-21T06:30:55;2.28;;;2.08;;
59099;SDS011;44884;52.730;6.964;2022-08-21T06:33:21;4.97;;;2.80;;
59099;SDS011;44884;52.730;6.964;2022-08-21T06:35:48;2.75;;;2.55;;
59099;SDS011;44884;52.730;6.964;2022-08-21T06:38:14;2.95;;;2.35;;
59099;SDS011;44884;52.730;6.964;2022-08-21T06:40:40;3.28;;;2.47;;
59099;SDS011;44884;52.730;6.964;2022-08-21T06:43:11;3.20;;;2.90;;
59099;SDS011;44884;52.730;6.964;2022-08-21T06:45:37;4.25;;;3.35;;
59099;SDS011;44884;52.730;6.964;2022-08-21T06:48:03;3.72;;;3.30;;
59099;SDS011;44884;52.730;6.964;2022-08-21T06:50:29;3.08;;;2.50;;
59099;SDS011;44884;52.730;6.964;2022-08-21T06:53:00;2.38;;;2.17;;
59099;SDS011;44884;52.730;6.964;2022-08-21T06:55:26;2.70;;;2.28;;
59099;SDS011;44884;52.730;6.964;2022-08-21T06:57:53;3.13;;;2.83;;
59099;SDS011;44884;52.730;6.964;2022-08-21T07:00:19;2.70;;;2.40;;
59099;SDS011;44884;52.730;6.964;2022-08-21T07:02:45;8.20;;;4.45;;
59099;SDS011;44884;52.730;6.964;2022-08-21T07:05:11;7.93;;;4.15;;
59099;SDS011;44884;52.730;6.964;2022-08-21T07:07:37;10.43;;;5.53;;
59099;SDS011;44884;52.730;6.964;2022-08-21T07:10:03;10.43;;;5.20;;
59099;SDS011;44884;52.730;6.964;2022-08-21T07:12:30;6.15;;;4.10;;
59099;SDS011;44884;52.730;6.964;2022-08-21T07:14:56;7.45;;;4.20;;
59099;SDS011;44884;52.730;6.964;2022-08-21T07:17:23;8.68;;;4.10;;
59099;SDS011;44884;52.730;6.964;2022-08-21T07:19:49;7.40;;;4.00;;
59099;SDS011;44884;52.730;6.964;2022-08-21T07:22:17;5.50;;;4.40;;
59099;SDS011;44884;52.730;6.964;2022-08-21T07:24:43;11.13;;;4.38;;
59099;SDS011;44884;52.730;6.964;2022-08-21T07:27:09;11.00;;;4.85;;
59099;SDS011;44884;52.730;6.964;2022-08-21T07:29:35;6.43;;;3.22;;
59099;SDS011;44884;52.730;6.964;2022-08-21T07:32:02;5.60;;;3.10;;
59099;SDS011;44884;52.730;6.964;2022-08-21T07:34:29;9.13;;;4.18;;
59099;SDS011;44884;52.730;6.964;2022-08-21T07:36:55;7.28;;;3.58;;
59099;SDS011;44884;52.730;6.964;2022-08-21T07:39:21;6.55;;;2.97;;
59099;SDS011;44884;52.730;6.964;2022-08-21T07:41:47;5.70;;;3.60;;
59099;SDS011;44884;52.730;6.964;2022-08-21T07:44:13;8.45;;;3.80;;
59099;SDS011;44884;52.730;6.964;2022-08-21T07:46:39;5.20;;;3.08;;
59099;SDS011;44884;52.730;6.964;2022-08-21T07:49:05;6.72;;;2.85;;
59099;SDS011;44884;52.730;6.964;2022-08-21T07:51:31;6.28;;;3.00;;
59099;SDS011;44884;52.730;6.964;2022-08-21T07:53:58;12.75;;;3.55;;
59099;SDS011;44884;52.730;6.964;2022-08-21T07:56:25;5.65;;;2.72;;
59099;SDS011;44884;52.730;6.964;2022-08-21T07:58:51;5.78;;;2.50;;
59099;SDS011;44884;52.730;6.964;2022-08-21T08:01:18;4.63;;;2.65;;
59099;SDS011;44884;52.730;6.964;2022-08-21T08:03:44;9.27;;;3.30;;
59099;SDS011;44884;52.730;6.964;2022-08-21T08:06:10;6.85;;;2.80;;
59099;SDS011;44884;52.730;6.964;2022-08-21T08:08:41;8.38;;;2.97;;
59099;SDS011;44884;52.730;6.964;2022-08-21T08:11:10;5.55;;;3.33;;
59099;SDS011;44884;52.730;6.964;2022-08-21T08:13:40;5.55;;;2.75;;
59099;SDS011;44884;52.730;6.964;2022-08-21T08:16:06;5.22;;;2.47;;
59099;SDS011;44884;52.730;6.964;2022-08-21T08:18:32;6.13;;;2.97;;
59099;SDS011;44884;52.730;6.964;2022-08-21T08:20:59;7.82;;;2.92;;
59099;SDS011;44884;52.730;6.964;2022-08-21T08:23:25;5.15;;;3.03;;
59099;SDS011;44884;52.730;6.964;2022-08-21T08:25:52;3.92;;;2.90;;
59099;SDS011;44884;52.730;6.964;2022-08-21T08:28:18;7.80;;;2.90;;
59099;SDS011;44884;52.730;6.964;2022-08-21T08:30:45;5.60;;;2.75;;
59099;SDS011;44884;52.730;6.964;2022-08-21T08:33:11;8.85;;;2.70;;
59099;SDS011;44884;52.730;6.964;2022-08-21T08:35:37;5.75;;;2.47;;
59099;SDS011;44884;52.730;6.964;2022-08-21T08:38:05;14.43;;;2.40;;
59099;SDS011;44884;52.730;6.964;2022-08-21T08:40:33;3.20;;;2.50;;
59099;SDS011;44884;52.730;6.964;2022-08-21T08:43:03;14.73;;;3.08;;
59099;SDS011;44884;52.730;6.964;2022-08-21T08:45:30;10.07;;;2.10;;
59099;SDS011;44884;52.730;6.964;2022-08-21T08:47:59;9.35;;;4.10;;
59099;SDS011;44884;52.730;6.964;2022-08-21T08:53:02;6.90;;;3.75;;
59099;SDS011;44884;52.730;6.964;2022-08-21T08:55:33;4.43;;;2.78;;
59099;SDS011;44884;52.730;6.964;2022-08-21T08:58:00;8.68;;;2.80;;
59099;SDS011;44884;52.730;6.964;2022-08-21T09:00:27;5.55;;;3.38;;
59099;SDS011;44884;52.730;6.964;2022-08-21T09:02:54;7.53;;;3.30;;
59099;SDS011;44884;52.730;6.964;2022-08-21T09:10:43;7.18;;;3.38;;
59099;SDS011;44884;52.730;6.964;2022-08-21T09:13:24;6.63;;;3.20;;
59099;SDS011;44884;52.730;6.964;2022-08-21T09:21:36;5.82;;;3.13;;
59099;SDS011;44884;52.730;6.964;2022-08-21T09:26:54;4.78;;;3.10;;
59099;SDS011;44884;52.730;6.964;2022-08-21T09:31:48;5.32;;;3.50;;
59099;SDS011;44884;52.730;6.964;2022-08-21T09:34:23;5.22;;;3.20;;
59099;SDS011;44884;52.730;6.964;2022-08-21T09:36:49;8.88;;;3.35;;
59099;SDS011;44884;52.730;6.964;2022-08-21T09:39:30;5.60;;;2.90;;
59099;SDS011;44884;52.730;6.964;2022-08-21T09:44:26;4.35;;;2.60;;
59099;SDS011;44884;52.730;6.964;2022-08-21T09:46:53;6.10;;;3.13;;
59099;SDS011;44884;52.730;6.964;2022-08-21T09:49:32;5.97;;;3.45;;
59099;SDS011;44884;52.730;6.964;2022-08-21T09:51:58;9.15;;;3.03;;
59099;SDS011;44884;52.730;6.964;2022-08-21T09:54:32;6.32;;;2.53;;
59099;SDS011;44884;52.730;6.964;2022-08-21T09:57:01;4.95;;;2.65;;
59099;SDS011;44884;52.730;6.964;2022-08-21T09:59:50;6.32;;;3.17;;
59099;SDS011;44884;52.730;6.964;2022-08-21T10:02:20;5.88;;;3.22;;
59099;SDS011;44884;52.730;6.964;2022-08-21T10:04:51;5.13;;;2.88;;
59099;SDS011;44884;52.730;6.964;2022-08-21T10:07:19;2.78;;;2.33;;
59099;SDS011;44884;52.730;6.964;2022-08-21T10:09:45;7.60;;;2.83;;
59099;SDS011;44884;52.730;6.964;2022-08-21T10:12:21;2.75;;;2.28;;
59099;SDS011;44884;52.730;6.964;2022-08-21T10:17:22;3.30;;;2.25;;
59099;SDS011;44884;52.730;6.964;2022-08-21T10:22:27;2.30;;;2.00;;
59099;SDS011;44884;52.730;6.964;2022-08-21T10:28:04;6.28;;;2.15;;
59099;SDS011;44884;52.730;6.964;2022-08-21T10:33:33;2.67;;;2.08;;
59099;SDS011;44884;52.730;6.964;2022-08-21T10:36:20;4.15;;;2.30;;
59099;SDS011;44884;52.730;6.964;2022-08-21T10:44:13;4.47;;;1.98;;
59099;SDS011;44884;52.730;6.964;2022-08-21T10:52:22;3.10;;;2.00;;
59099;SDS011;44884;52.730;6.964;2022-08-21T10:55:02;2.60;;;2.08;;
59099;SDS011;44884;52.730;6.964;2022-08-21T10:57:53;3.05;;;1.90;;
59099;SDS011;44884;52.730;6.964;2022-08-21T11:00:17;2.38;;;1.90;;
59099;SDS011;44884;52.730;6.964;2022-08-21T11:02:46;2.55;;;2.20;;
59099;SDS011;44884;52.730;6.964;2022-08-21T11:05:24;3.40;;;1.77;;
59099;SDS011;44884;52.730;6.964;2022-08-21T11:12:45;2.47;;;1.70;;
59099;SDS011;44884;52.730;6.964;2022-08-21T11:17:45;3.00;;;1.88;;
59099;SDS011;44884;52.730;6.964;2022-08-21T11:20:22;3.33;;;1.60;;
59099;SDS011;44884;52.730;6.964;2022-08-21T11:23:01;4.18;;;1.92;;
59099;SDS011;44884;52.730;6.964;2022-08-21T11:27:56;2.58;;;1.52;;
59099;SDS011;44884;52.730;6.964;2022-08-21T11:30:26;2.20;;;2.00;;
59099;SDS011;44884;52.730;6.964;2022-08-21T11:43:12;2.83;;;1.73;;
59099;SDS011;44884;52.730;6.964;2022-08-21T11:45:47;6.65;;;2.83;;
59099;SDS011;44884;52.730;6.964;2022-08-21T11:50:40;2.25;;;1.92;;
59099;SDS011;44884;52.730;6.964;2022-08-21T11:53:12;3.63;;;1.58;;
59099;SDS011;44884;52.730;6.964;2022-08-21T11:55:44;2.22;;;2.03;;
59099;SDS011;44884;52.730;6.964;2022-08-21T11:58:16;2.50;;;2.30;;
59099;SDS011;44884;52.730;6.964;2022-08-21T12:00:54;4.18;;;1.98;;
59099;SDS011;44884;52.730;6.964;2022-08-21T12:03:31;2.65;;;1.80;;
59099;SDS011;44884;52.730;6.964;2022-08-21T12:08:34;2.05;;;1.85;;
59099;SDS011;44884;52.730;6.964;2022-08-21T12:11:06;2.25;;;1.40;;
59099;SDS011;44884;52.730;6.964;2022-08-21T12:13:33;2.47;;;1.80;;
59099;SDS011;44884;52.730;6.964;2022-08-21T12:16:14;3.03;;;1.67;;
59099;SDS011;44884;52.730;6.964;2022-08-21T12:18:41;2.03;;;1.70;;
59099;SDS011;44884;52.730;6.964;2022-08-21T12:21:24;4.00;;;1.92;;
59099;SDS011;44884;52.730;6.964;2022-08-21T12:26:33;2.38;;;1.70;;
59099;SDS011;44884;52.730;6.964;2022-08-21T12:29:07;3.40;;;1.58;;
59099;SDS011;44884;52.730;6.964;2022-08-21T12:31:36;3.05;;;2.13;;
59099;SDS011;44884;52.730;6.964;2022-08-21T12:34:12;2.20;;;1.60;;
59099;SDS011;44884;52.730;6.964;2022-08-21T12:39:27;1.70;;;1.60;;
59099;SDS011;44884;52.730;6.964;2022-08-21T12:44:58;2.65;;;1.52;;
59099;SDS011;44884;52.730;6.964;2022-08-21T12:47:32;2.63;;;2.00;;
59099;SDS011;44884;52.730;6.964;2022-08-21T12:52:57;1.83;;;1.65;;
59099;SDS011;44884;52.730;6.964;2022-08-21T12:55:28;2.72;;;1.90;;
59099;SDS011;44884;52.730;6.964;2022-08-21T12:57:54;1.67;;;1.42;;
59099;SDS011;44884;52.730;6.964;2022-08-21T13:00:22;2.03;;;1.65;;
59099;SDS011;44884;52.730;6.964;2022-08-21T13:02:49;2.78;;;1.58;;
59099;SDS011;44884;52.730;6.964;2022-08-21T13:05:20;1.95;;;1.50;;
59099;SDS011;44884;52.730;6.964;2022-08-21T13:07:49;2.83;;;1.70;;
59099;SDS011;44884;52.730;6.964;2022-08-21T13:10:19;2.92;;;2.45;;
59099;SDS011;44884;52.730;6.964;2022-08-21T13:12:46;1.60;;;1.42;;
59099;SDS011;44884;52.730;6.964;2022-08-21T13:15:12;2.72;;;1.77;;
59099;SDS011;44884;52.730;6.964;2022-08-21T13:17:40;1.70;;;1.48;;
59099;SDS011;44884;52.730;6.964;2022-08-21T13:20:09;1.58;;;1.42;;
59099;SDS011;44884;52.730;6.964;2022-08-21T13:22:42;1.83;;;1.45;;
59099;SDS011;44884;52.730;6.964;2022-08-21T13:25:09;2.80;;;1.55;;
59099;SDS011;44884;52.730;6.964;2022-08-21T13:27:35;2.40;;;1.60;;
59099;SDS011;44884;52.730;6.964;2022-08-21T13:32:32;4.85;;;2.15;;
59099;SDS011;44884;52.730;6.964;2022-08-21T13:35:06;6.00;;;1.73;;
59099;SDS011;44884;52.730;6.964;2022-08-21T13:37:33;4.25;;;2.15;;
59099;SDS011;44884;52.730;6.964;2022-08-21T13:39:59;4.40;;;2.03;;
59099;SDS011;44884;52.730;6.964;2022-08-21T13:42:25;5.18;;;2.20;;
59099;SDS011;44884;52.730;6.964;2022-08-21T13:44:52;3.13;;;1.80;;
59099;SDS011;44884;52.730;6.964;2022-08-21T13:47:19;9.20;;;3.05;;
59099;SDS011;44884;52.730;6.964;2022-08-21T13:49:46;5.75;;;1.98;;
59099;SDS011;44884;52.730;6.964;2022-08-21T13:52:16;4.35;;;1.70;;
59099;SDS011;44884;52.730;6.964;2022-08-21T13:54:43;4.50;;;1.58;;
59099;SDS011;44884;52.730;6.964;2022-08-21T13:57:20;3.28;;;1.70;;
59099;SDS011;44884;52.730;6.964;2022-08-21T13:59:50;4.53;;;2.58;;
59099;SDS011;44884;52.730;6.964;2022-08-21T14:02:25;5.13;;;1.98;;
59099;SDS011;44884;52.730;6.964;2022-08-21T14:07:24;3.65;;;1.77;;
59099;SDS011;44884;52.730;6.964;2022-08-21T14:09:52;6.05;;;2.17;;
59099;SDS011;44884;52.730;6.964;2022-08-21T14:15:03;8.18;;;2.25;;
59099;SDS011;44884;52.730;6.964;2022-08-21T14:17:34;5.50;;;2.17;;
59099;SDS011;44884;52.730;6.964;2022-08-21T14:20:02;3.90;;;1.90;;
59099;SDS011;44884;52.730;6.964;2022-08-21T14:25:02;3.78;;;2.13;;
59099;SDS011;44884;52.730;6.964;2022-08-21T14:27:30;4.00;;;2.40;;
59099;SDS011;44884;52.730;6.964;2022-08-21T14:29:58;4.80;;;2.10;;
59099;SDS011;44884;52.730;6.964;2022-08-21T14:32:27;4.60;;;2.40;;
59099;SDS011;44884;52.730;6.964;2022-08-21T14:34:55;3.85;;;2.20;;
59099;SDS011;44884;52.730;6.964;2022-08-21T14:37:22;4.47;;;2.30;;
59099;SDS011;44884;52.730;6.964;2022-08-21T14:39:48;4.13;;;2.05;;
59099;SDS011;44884;52.730;6.964;2022-08-21T14:42:14;4.40;;;2.40;;
59099;SDS011;44884;52.730;6.964;2022-08-21T14:44:41;7.88;;;2.53;;
59099;SDS011;44884;52.730;6.964;2022-08-21T14:47:08;11.63;;;3.45;;
59099;SDS011;44884;52.730;6.964;2022-08-21T14:49:34;4.30;;;1.80;;
59099;SDS011;44884;52.730;6.964;2022-08-21T14:52:00;5.60;;;2.47;;
59099;SDS011;44884;52.730;6.964;2022-08-21T14:54:27;6.88;;;1.90;;
59099;SDS011;44884;52.730;6.964;2022-08-21T14:56:53;4.15;;;1.70;;
59099;SDS011;44884;52.730;6.964;2022-08-21T14:59:20;6.50;;;2.28;;
59099;SDS011;44884;52.730;6.964;2022-08-21T15:01:46;5.13;;;1.95;;
59099;SDS011;44884;52.730;6.964;2022-08-21T15:04:12;6.53;;;2.58;;
59099;SDS011;44884;52.730;6.964;2022-08-21T15:06:38;6.13;;;1.90;;
59099;SDS011;44884;52.730;6.964;2022-08-21T15:09:04;6.82;;;2.40;;
59099;SDS011;44884;52.730;6.964;2022-08-21T15:11:31;3.75;;;2.05;;
59099;SDS011;44884;52.730;6.964;2022-08-21T15:13:58;8.27;;;2.70;;
59099;SDS011;44884;52.730;6.964;2022-08-21T15:16:26;3.80;;;2.08;;
59099;SDS011;44884;52.730;6.964;2022-08-21T15:18:52;7.22;;;3.08;;
59099;SDS011;44884;52.730;6.964;2022-08-21T15:21:18;3.78;;;2.17;;
59099;SDS011;44884;52.730;6.964;2022-08-21T15:23:45;4.88;;;2.65;;
59099;SDS011;44884;52.730;6.964;2022-08-21T15:26:11;2.80;;;1.90;;
59099;SDS011;44884;52.730;6.964;2022-08-21T15:28:37;5.22;;;2.33;;
59099;SDS011;44884;52.730;6.964;2022-08-21T15:31:03;8.55;;;2.83;;
59099;SDS011;44884;52.730;6.964;2022-08-21T15:33:29;6.72;;;1.98;;
59099;SDS011;44884;52.730;6.964;2022-08-21T15:35:56;5.15;;;1.75;;
59099;SDS011;44884;52.730;6.964;2022-08-21T15:38:22;2.88;;;1.95;;
59099;SDS011;44884;52.730;6.964;2022-08-21T15:40:49;5.07;;;1.92;;
59099;SDS011;44884;52.730;6.964;2022-08-21T15:43:23;4.28;;;1.73;;
59099;SDS011;44884;52.730;6.964;2022-08-21T15:45:50;3.20;;;1.98;;
59099;SDS011;44884;52.730;6.964;2022-08-21T15:48:16;3.45;;;1.95;;
59099;SDS011;44884;52.730;6.964;2022-08-21T15:50:42;4.15;;;2.00;;
59099;SDS011;44884;52.730;6.964;2022-08-21T15:53:08;4.80;;;1.92;;
59099;SDS011;44884;52.730;6.964;2022-08-21T15:55:34;5.45;;;2.28;;
59099;SDS011;44884;52.730;6.964;2022-08-21T15:58:00;2.67;;;1.90;;
59099;SDS011;44884;52.730;6.964;2022-08-21T16:00:26;7.75;;;2.65;;
59099;SDS011;44884;52.730;6.964;2022-08-21T16:02:53;3.45;;;1.95;;
59099;SDS011;44884;52.730;6.964;2022-08-21T16:05:21;3.22;;;1.75;;
59099;SDS011;44884;52.730;6.964;2022-08-21T16:07:47;4.10;;;2.30;;
59099;SDS011;44884;52.730;6.964;2022-08-21T16:10:14;4.43;;;2.22;;
59099;SDS011;44884;52.730;6.964;2022-08-21T16:12:43;2.92;;;1.67;;
59099;SDS011;44884;52.730;6.964;2022-08-21T16:15:11;9.13;;;2.33;;
59099;SDS011;44884;52.730;6.964;2022-08-21T16:17:39;3.70;;;2.03;;
59099;SDS011;44884;52.730;6.964;2022-08-21T16:20:09;2.53;;;2.15;;
59099;SDS011;44884;52.730;6.964;2022-08-21T16:22:36;3.83;;;1.83;;
59099;SDS011;44884;52.730;6.964;2022-08-21T16:25:03;2.17;;;1.70;;